Tolu, Kentucky
Current Conditions -  °F | °C
As of 12:55 AM on Monday 22 Dec 2014 (Local Time) from K5M9 Reporting Station
Overcast Overcast  
Wind Chill: 37°   Ceiling: 8000
Heat Index: 37°   Visibility: 10mi
Dew Point: 30°   Wind: 3mph
Humidity: 75%   Direction: 110°ESE
Pressure: 29.95"   Gusts: NA
Location:  37.43°N, 88.25°W
Report Text: K5M9 220655Z AUTO 11003KT 10SM BKN080 OVC095 03/M01 A2995 RMK AO2 T00301011
Loading
Personal Weather Stations






























Interactive Weather Map New forecast layout! Learn more

10-Day Weather Forecast

Advertisements
Track Severe Weather on mobile